• Join FlightAware (Why Join?)
  • Login
  • US Flag 
03:15AM EDT


 

Airport Tracker/Info


-or-


 

Live Flight TrackerFlight Track Log ✈ AAL970 ✈ 17-Jun-2013 ✈ MNMG / MGA - KMIA

Flight Track Log - Related Links

Times and Time Zones

All times are in EDT time to prevent confusion due to time zone crossing. See the AAL970 flight status page for this flight to view local times or setup timezone preferences in your user account.

Time Position Orientation Groundspeed Altitude Reporting Facility
EDT Latitude Longitude Course Direction KTS MPH feet Rate Location/Type
03:00PM 12.4563 -86.0427 21° North  Level Estimated
03:01PM 12.5613 -86.0009 18° North  Level Estimated
03:02PM 12.6656 -85.9574 22° Northeast  Level FlightAware Approximate
03:03PM 12.7705 -85.9155 22° Northeast  Level Estimated
03:04PM 12.8744 -85.8708 23° Northeast  Level FlightAware Approximate
03:05PM 12.9782 -85.8261 23° Northeast  Level FlightAware Approximate
03:06PM 13.0831 -85.7841 21° North  Level Estimated
03:07PM 13.1881 -85.7420 18° North  Level Estimated
03:08PM 13.2953 -85.7068 18° North  Level FlightAware Approximate
03:09PM 13.4002 -85.6646 26° Northeast  Level Estimated
03:10PM 13.5051 -85.6224 23° Northeast  Level Estimated
03:11PM 13.6099 -85.5802 20° North  Level Estimated
03:12PM 13.7152 -85.5390 21° North  Level FlightAware Approximate
03:13PM 13.8205 -85.4978 21° North  Level FlightAware Approximate
03:14PM 13.9253 -85.4555 21° North  Level Estimated
03:15PM 14.0302 -85.4131 21° North  Level Estimated
03:16PM 14.1351 -85.3710 21° North  Level FlightAware Approximate
03:17PM 14.2401 -85.3289 21° North  Level FlightAware Approximate
03:18PM 14.3451 -85.2868 21° North  Level FlightAware Approximate
03:19PM 14.4500 -85.2447 21° North  Level FlightAware Approximate
03:20PM 14.5550 -85.2025 21° North  Level FlightAware Approximate
03:21PM 14.6599 -85.1602 21° North  Level FlightAware Approximate
03:22PM 14.7648 -85.1180 21° North  Level FlightAware Approximate
03:23PM 14.8698 -85.0757 21° North  Level FlightAware Approximate
03:24PM 14.9745 -85.0329 21° North  Level Estimated
03:25PM 15.0796 -84.9909 21° North  Level FlightAware Approximate
03:26PM 15.1847 -84.9490 21° North  Level FlightAware Approximate
03:27PM 15.2897 -84.9069 21° North  Level FlightAware Approximate
03:28PM 15.3948 -84.8649 21° North  Level FlightAware Approximate
03:29PM 15.4999 -84.8228 21° North  Level FlightAware Approximate
03:30PM 15.6049 -84.7806 21° North  Level FlightAware Approximate
03:31PM 15.7099 -84.7384 21° North  Level FlightAware Approximate
03:32PM 15.8150 -84.6962 21° North  Level FlightAware Approximate
03:33PM 15.9200 -84.6539 21° North  Level FlightAware Approximate
03:34PM 16.0250 -84.6116 21° North  Level FlightAware Approximate
03:35PM 16.1300 -84.5692 21° North  Level FlightAware Approximate
03:36PM 16.2350 -84.5268 21° North  Level FlightAware Approximate
03:37PM 16.3400 -84.4844 21° North  Level FlightAware Approximate
03:38PM 16.4450 -84.4419 21° North  Level FlightAware Approximate
03:39PM 16.5499 -84.3993 21° North  Level FlightAware Approximate
03:40PM 16.6549 -84.3567 21° North  Level FlightAware Approximate
03:41PM 16.7598 -84.3141 21° North  Level FlightAware Approximate
03:42PM 16.8648 -84.2714 21° North  Level FlightAware Approximate
03:43PM 16.9697 -84.2287 21° North  Level FlightAware Approximate
03:44PM 17.0746 -84.1859 21° North  Level FlightAware Approximate
03:45PM 17.1795 -84.1430 21° North  Level FlightAware Approximate
03:46PM 17.2845 -84.1002 21° North  Level FlightAware Approximate
03:47PM 17.3894 -84.0572 21° North  Level FlightAware Approximate
03:48PM 17.4942 -84.0143 21° North  Level FlightAware Approximate
03:49PM 17.5991 -83.9712 21° North  Level FlightAware Approximate
03:50PM 17.7040 -83.9281 21° North  Level FlightAware Approximate
03:51PM 17.8088 -83.8850 21° North  Level FlightAware Approximate
03:52PM 17.9137 -83.8418 21° North  Level FlightAware Approximate
03:53PM 18.0185 -83.7986 21° North  Level FlightAware Approximate
03:54PM 18.1234 -83.7553 21° North  Level FlightAware Approximate
03:55PM 18.2282 -83.7120 21° North  Level FlightAware Approximate
03:56PM 18.3330 -83.6686 21° North  Level FlightAware Approximate
03:57PM 18.4378 -83.6252 21° North  Level FlightAware Approximate
03:58PM 18.5426 -83.5817 21° North  Level FlightAware Approximate
03:59PM 18.6474 -83.5381 21° North  Level FlightAware Approximate
04:00PM 18.7521 -83.4945 22° Northeast  Level FlightAware Approximate
04:01PM 18.8569 -83.4509 22° Northeast  Level FlightAware Approximate
04:02PM 18.9617 -83.4072 22° Northeast  Level FlightAware Approximate
04:03PM 19.0664 -83.3634 22° Northeast  Level FlightAware Approximate
04:04PM 19.1711 -83.3196 22° Northeast  Level FlightAware Approximate
04:05PM 19.2758 -83.2757 22° Northeast  Level FlightAware Approximate
04:06PM 19.3806 -83.2318 22° Northeast  Level FlightAware Approximate
04:07PM 19.4853 -83.1878 22° Northeast  Level FlightAware Approximate
04:08PM 19.5899 -83.1438 22° Northeast  Level FlightAware Approximate
04:09PM 19.6946 -83.0997 22° Northeast  Level FlightAware Approximate
04:10PM 19.7987 -83.0539 22° Northeast  Level Estimated
04:11PM 19.9033 -83.0095 22° Northeast  Level FlightAware Approximate
04:12PM 20.0079 -82.9651 22° Northeast  Level FlightAware Approximate
04:13PM 20.1124 -82.9206 22° Northeast  Level FlightAware Approximate
04:14PM 20.2164 -82.8745 22° Northeast  Level Estimated
04:15PM 20.3209 -82.8296 22° Northeast  Level FlightAware Approximate
04:16PM 20.4253 -82.7846 22° Northeast  Level FlightAware Approximate
04:17PM 20.5297 -82.7395 22° Northeast  Level FlightAware Approximate
04:18PM 20.6341 -82.6944 22° Northeast  Level FlightAware Approximate
04:19PM 20.7385 -82.6492 22° Northeast  Level FlightAware Approximate
04:20PM 20.8428 -82.6040 22° Northeast  Level FlightAware Approximate
04:21PM 20.9472 -82.5587 22° Northeast  Level FlightAware Approximate
04:22PM 21.0515 -82.5133 22° Northeast  Level FlightAware Approximate
04:23PM 21.1559 -82.4679 22° Northeast  Level FlightAware Approximate
04:24PM 21.2602 -82.4224 22° Northeast  Level FlightAware Approximate
04:25PM 21.3645 -82.3768 22° Northeast  Level FlightAware Approximate
04:26PM 21.4688 -82.3312 22° Northeast  Level FlightAware Approximate
04:27PM 21.5731 -82.2855 22° Northeast  Level FlightAware Approximate
04:28PM 21.6774 -82.2397 22° Northeast  Level FlightAware Approximate
04:29PM 21.7816 -82.1939 22° Northeast  Level FlightAware Approximate
04:30PM 21.8859 -82.1480 22° Northeast  Level FlightAware Approximate
04:31PM 21.9901 -82.1021 22° Northeast  Level FlightAware Approximate
04:32PM 22.0943 -82.0560 22° Northeast  Level FlightAware Approximate
04:33PM 22.1978 -82.0081 23° Northeast  Level Estimated
04:34PM 22.3020 -81.9618 22° Northeast  Level FlightAware Approximate
04:35PM 22.4159 -81.9167 20° North  Level FlightAware Approximate
04:36PM 22.5288 -81.8689 25° Northeast  Level FlightAware Approximate
04:37PM 22.6390 -81.8139 25° Northeast  Level FlightAware Approximate
04:38PM 22.7503 -81.7618 22° Northeast  Level FlightAware Approximate
04:39PM 22.8632 -81.7133 22° Northeast  Level FlightAware Approximate
04:40PM 22.9760 -81.6648 22° Northeast  Level FlightAware Approximate
04:41PM 23.0888 -81.6163 22° Northeast  Level FlightAware Approximate
04:42PM 23.2015 -81.5676 22° Northeast  Level FlightAware Approximate
04:42PM 23.8925 -81.2533 22° Northeast 488 562 34,000  Level Miami Center
04:43PM 23.3143 -81.5189 22° Northeast  Level FlightAware Approximate
04:44PM 23.4270 -81.4700 22° Northeast  Level FlightAware Approximate
04:45PM 23.5397 -81.4211 22° Northeast  Level FlightAware Approximate
04:48PM 24.6530 -81.1040 22° Northeast 424 488 24,400  Level FlightAware
04:49PM 24.7330 -81.0930 North 424 488 24,100 -2,340 Descending FlightAware
04:49PM 24.8220 -81.0820 North 418 481 21,100 -3,300 Descending FlightAware
04:50PM 24.8990 -81.0730 North 402 463 19,600 -1,620 Descending FlightAware
04:51PM 24.9880 -81.0630 North 402 463 18,700 -2,160 Descending FlightAware
04:52PM 25.0820 -81.0510 North 374 430 16,100 -2,640 Descending FlightAware
04:53PM 25.1790 -81.0390 North 373 429 14,200 -2,100 Descending FlightAware
04:53PM 25.2460 -81.0310 North 356 410 12,800 -2,100 Descending FlightAware
04:54PM 25.3130 -81.0230 North 358 412 11,400 -2,100 Descending FlightAware
04:55PM 25.3850 -81.0080 11° North 348 400 9,900 -1,320 Descending FlightAware
04:55PM 25.4190 -80.9880 28° Northeast 313 360 9,900  Level FlightAware
04:56PM 25.4440 -80.9730 28° Northeast 295 339 9,900  Level FlightAware
04:56PM 25.4660 -80.9550 36° Northeast 290 334 9,900  Level FlightAware
04:56PM 25.4840 -80.9320 49° Northeast 287 330 9,900 -240 Level FlightAware
04:57PM 25.5070 -80.8960 55° Northeast 285 328 9,700 -1,140 Descending FlightAware
04:57PM 25.5270 -80.8650 54° Northeast 294 338 8,900 -2,040 Descending FlightAware
04:58PM 25.5470 -80.8330 55° Northeast 302 348 8,000 -1,440 Descending FlightAware
04:58PM 25.5710 -80.7970 54° Northeast 285 328 7,600 -1,080 Descending FlightAware
04:59PM 25.6010 -80.7510 54° Northeast 271 312 6,800 -1,200 Descending FlightAware
04:59PM 25.6130 -80.7330 54° Northeast 270 311 6,500 -1,500 Descending FlightAware
04:59PM 25.6340 -80.7000 55° Northeast 266 306 5,700 -1,500 Descending FlightAware
05:00PM 25.6450 -80.6830 54° Northeast 265 305 5,400 -1,320 Descending FlightAware
05:00PM 25.6630 -80.6550 54° Northeast 260 299 4,800 -1,140 Descending FlightAware
05:01PM 25.6840 -80.6230 54° Northeast 255 293 4,400 -900 Descending FlightAware
05:01PM 25.7010 -80.5970 54° Northeast 235 270 4,000 -900 Descending FlightAware
05:02PM 25.7200 -80.5680 54° Northeast 226 260 3,600 -1,140 Descending FlightAware
05:02PM 25.7380 -80.5400 54° Northeast 223 257 2,900 -780 Descending FlightAware
05:02PM 25.7530 -80.5170 54° Northeast 207 238 2,900  Level FlightAware
05:03PM 25.7690 -80.4920 55° Northeast 201 231 2,900 -180 Level FlightAware
05:03PM 25.7760 -80.4790 59° Northeast 194 223 2,800 -900 Descending FlightAware
05:04PM 25.7800 -80.4540 80° East 191 220 2,300 -1,140 Descending FlightAware
05:04PM 25.7820 -80.4160 87° East 168 193 1,600 -840 Descending FlightAware
05:05PM 25.7830 -80.3790 88° East 153 176 1,100 -720 Descending FlightAware
05:05PM 25.7840 -80.3740 77° East 154 177 1,000 -780 Descending FlightAware
05:06PM 25.7850 -80.3430 88° East 151 174 500 -840 Descending FlightAware
05:06PM 25.7860 -80.3280 86° East 149 171 200 -420 Descending FlightAware
05:07PM 25.7860 -80.3100 90° East 149 171 200  Level FlightAware
05:07PM 25.7870 -80.2920 86° East 23 26 -420 Descending FlightAware
05:07PM 25.7880 -80.2920 360° North 34 39  Level FlightAware
05:08PM 25.7880 -80.2910 90° East 34 39  Level FlightAware
05:08PM 25.7890 -80.2890 61° Northeast 26 30  Level FlightAware
05:08PM 25.7900 -80.2890 360° North 25 29  Level FlightAware
05:09PM 25.7910 -80.2890 360° North 16 18  Level FlightAware
05:11PM 25.7920 -80.2890 360° North 24 28  Level FlightAware
05:11PM 25.7940 -80.2890 360° North 26 30  Level FlightAware
05:12PM 25.7950 -80.2890 360° North 24 28  Level FlightAware
05:12PM 25.7960 -80.2890 360° North 26 30  Level FlightAware
05:12PM 25.7970 -80.2890 360° North 27 31  Level FlightAware
05:13PM 25.7980 -80.2890 360° North 27 31  Level FlightAware
05:14PM 25.7990 -80.2860 70° East 23 26  Level FlightAware
05:15PM 25.7990 -80.2850 90° East 24 28  Level FlightAware
05:15PM 25.8000 -80.2830 61° Northeast 25 29  Level FlightAware